sensor_id;sensor_type;location;lat;lon;timestamp;temperature;humidity
28715;DHT22;15886;49.170;14.572;2023-02-15T00:01:53;2.50;99.90
28715;DHT22;15886;49.170;14.572;2023-02-15T00:04:28;2.50;99.90
28715;DHT22;15886;49.170;14.572;2023-02-15T00:07:16;2.50;99.90
28715;DHT22;15886;49.170;14.572;2023-02-15T00:10:02;2.50;99.90
28715;DHT22;15886;49.170;14.572;2023-02-15T00:12:36;2.50;99.90
28715;DHT22;15886;49.170;14.572;2023-02-15T00:15:05;2.50;99.90
28715;DHT22;15886;49.170;14.572;2023-02-15T00:17:33;2.50;99.90
28715;DHT22;15886;49.170;14.572;2023-02-15T00:20:01;2.60;99.90
28715;DHT22;15886;49.170;14.572;2023-02-15T00:22:35;2.50;99.90
28715;DHT22;15886;49.170;14.572;2023-02-15T00:25:05;2.50;99.90
28715;DHT22;15886;49.170;14.572;2023-02-15T00:27:34;2.40;99.90
28715;DHT22;15886;49.170;14.572;2023-02-15T00:30:08;2.40;99.90
28715;DHT22;15886;49.170;14.572;2023-02-15T00:32:40;2.30;99.90
28715;DHT22;15886;49.170;14.572;2023-02-15T00:35:09;2.40;99.90
28715;DHT22;15886;49.170;14.572;2023-02-15T00:37:39;2.40;99.90
28715;DHT22;15886;49.170;14.572;2023-02-15T00:40:08;2.40;99.90
28715;DHT22;15886;49.170;14.572;2023-02-15T00:42:37;2.40;99.90
28715;DHT22;15886;49.170;14.572;2023-02-15T00:45:07;2.40;99.90
28715;DHT22;15886;49.170;14.572;2023-02-15T00:47:37;2.40;99.90
28715;DHT22;15886;49.170;14.572;2023-02-15T00:50:08;2.30;99.90
28715;DHT22;15886;49.170;14.572;2023-02-15T00:52:37;2.40;99.90
28715;DHT22;15886;49.170;14.572;2023-02-15T00:55:08;2.40;99.90
28715;DHT22;15886;49.170;14.572;2023-02-15T00:57:39;2.40;99.90
28715;DHT22;15886;49.170;14.572;2023-02-15T01:00:11;2.30;99.90
28715;DHT22;15886;49.170;14.572;2023-02-15T01:02:41;2.30;99.90
28715;DHT22;15886;49.170;14.572;2023-02-15T01:05:16;2.40;99.90
28715;DHT22;15886;49.170;14.572;2023-02-15T01:08:04;2.40;99.90
28715;DHT22;15886;49.170;14.572;2023-02-15T01:10:38;2.50;99.90
28715;DHT22;15886;49.170;14.572;2023-02-15T01:13:09;2.50;99.90
28715;DHT22;15886;49.170;14.572;2023-02-15T01:15:44;2.50;99.90
28715;DHT22;15886;49.170;14.572;2023-02-15T01:18:30;2.50;99.90
28715;DHT22;15886;49.170;14.572;2023-02-15T01:21:11;2.50;99.90
28715;DHT22;15886;49.170;14.572;2023-02-15T01:23:53;2.50;99.90
28715;DHT22;15886;49.170;14.572;2023-02-15T01:26:24;2.40;99.90
28715;DHT22;15886;49.170;14.572;2023-02-15T01:29:01;2.40;99.90
28715;DHT22;15886;49.170;14.572;2023-02-15T01:31:34;2.30;99.90
28715;DHT22;15886;49.170;14.572;2023-02-15T01:34:05;2.30;99.90
28715;DHT22;15886;49.170;14.572;2023-02-15T01:36:43;2.30;99.90
28715;DHT22;15886;49.170;14.572;2023-02-15T01:39:17;2.30;99.90
28715;DHT22;15886;49.170;14.572;2023-02-15T01:41:47;2.40;99.90
28715;DHT22;15886;49.170;14.572;2023-02-15T01:44:46;2.40;99.90
28715;DHT22;15886;49.170;14.572;2023-02-15T01:50:29;2.40;99.90
28715;DHT22;15886;49.170;14.572;2023-02-15T01:55:59;2.50;99.90
28715;DHT22;15886;49.170;14.572;2023-02-15T01:58:34;2.40;99.90
28715;DHT22;15886;49.170;14.572;2023-02-15T02:01:18;2.40;99.90
28715;DHT22;15886;49.170;14.572;2023-02-15T02:04:16;2.40;99.90
28715;DHT22;15886;49.170;14.572;2023-02-15T02:06:53;2.40;99.90
28715;DHT22;15886;49.170;14.572;2023-02-15T02:09:26;2.40;99.90
28715;DHT22;15886;49.170;14.572;2023-02-15T02:11:56;2.30;99.90
28715;DHT22;15886;49.170;14.572;2023-02-15T02:14:26;2.30;99.90
28715;DHT22;15886;49.170;14.572;2023-02-15T02:17:16;2.30;99.90
28715;DHT22;15886;49.170;14.572;2023-02-15T02:43:42;2.10;99.90
28715;DHT22;15886;49.170;14.572;2023-02-15T02:46:25;2.20;99.90
28715;DHT22;15886;49.170;14.572;2023-02-15T02:48:57;2.20;99.90
28715;DHT22;15886;49.170;14.572;2023-02-15T02:51:27;2.10;99.90
28715;DHT22;15886;49.170;14.572;2023-02-15T02:54:00;2.10;99.90
28715;DHT22;15886;49.170;14.572;2023-02-15T02:56:37;2.10;99.90
28715;DHT22;15886;49.170;14.572;2023-02-15T02:59:18;2.20;99.90
28715;DHT22;15886;49.170;14.572;2023-02-15T03:02:19;2.20;99.90
28715;DHT22;15886;49.170;14.572;2023-02-15T03:04:57;2.30;99.90
28715;DHT22;15886;49.170;14.572;2023-02-15T03:07:36;2.30;99.90
28715;DHT22;15886;49.170;14.572;2023-02-15T03:10:09;2.30;99.90
28715;DHT22;15886;49.170;14.572;2023-02-15T03:12:40;2.30;99.90
28715;DHT22;15886;49.170;14.572;2023-02-15T03:15:20;2.30;99.90
28715;DHT22;15886;49.170;14.572;2023-02-15T03:17:58;2.20;99.90
28715;DHT22;15886;49.170;14.572;2023-02-15T03:20:36;2.20;99.90
28715;DHT22;15886;49.170;14.572;2023-02-15T03:23:13;2.10;99.90
28715;DHT22;15886;49.170;14.572;2023-02-15T03:25:48;2.10;99.90
28715;DHT22;15886;49.170;14.572;2023-02-15T03:28:49;2.10;99.90
28715;DHT22;15886;49.170;14.572;2023-02-15T03:31:23;2.10;99.90
28715;DHT22;15886;49.170;14.572;2023-02-15T03:34:00;2.20;99.90
28715;DHT22;15886;49.170;14.572;2023-02-15T03:45:02;2.10;99.90
28715;DHT22;15886;49.170;14.572;2023-02-15T03:47:42;2.10;99.90
28715;DHT22;15886;49.170;14.572;2023-02-15T03:50:30;2.10;99.90
28715;DHT22;15886;49.170;14.572;2023-02-15T03:53:23;2.00;99.90
28715;DHT22;15886;49.170;14.572;2023-02-15T03:55:55;2.00;99.90
28715;DHT22;15886;49.170;14.572;2023-02-15T03:58:28;2.00;99.90
28715;DHT22;15886;49.170;14.572;2023-02-15T04:01:36;2.00;99.90
28715;DHT22;15886;49.170;14.572;2023-02-15T04:04:30;2.00;99.90
28715;DHT22;15886;49.170;14.572;2023-02-15T04:07:02;2.10;99.90
28715;DHT22;15886;49.170;14.572;2023-02-15T04:09:31;2.00;99.90
28715;DHT22;15886;49.170;14.572;2023-02-15T04:12:18;2.00;99.90
28715;DHT22;15886;49.170;14.572;2023-02-15T04:14:51;2.00;99.90
28715;DHT22;15886;49.170;14.572;2023-02-15T04:17:39;1.90;99.90
28715;DHT22;15886;49.170;14.572;2023-02-15T04:20:09;1.90;99.90
28715;DHT22;15886;49.170;14.572;2023-02-15T04:22:57;1.90;99.90
28715;DHT22;15886;49.170;14.572;2023-02-15T04:25:51;1.80;99.90
28715;DHT22;15886;49.170;14.572;2023-02-15T04:28:29;1.80;99.90
28715;DHT22;15886;49.170;14.572;2023-02-15T04:31:01;1.80;99.90
28715;DHT22;15886;49.170;14.572;2023-02-15T04:33:31;1.80;99.90
28715;DHT22;15886;49.170;14.572;2023-02-15T04:36:03;1.80;99.90
28715;DHT22;15886;49.170;14.572;2023-02-15T04:38:34;1.70;99.90
28715;DHT22;15886;49.170;14.572;2023-02-15T04:41:08;1.70;99.90
28715;DHT22;15886;49.170;14.572;2023-02-15T04:43:45;1.70;99.90
28715;DHT22;15886;49.170;14.572;2023-02-15T04:46:17;1.80;99.90
28715;DHT22;15886;49.170;14.572;2023-02-15T04:48:50;1.80;99.90
28715;DHT22;15886;49.170;14.572;2023-02-15T04:51:26;1.80;99.90
28715;DHT22;15886;49.170;14.572;2023-02-15T04:53:56;1.80;99.90
28715;DHT22;15886;49.170;14.572;2023-02-15T04:56:30;1.80;99.90
28715;DHT22;15886;49.170;14.572;2023-02-15T04:59:10;1.80;99.90
28715;DHT22;15886;49.170;14.572;2023-02-15T05:01:42;1.80;99.90
28715;DHT22;15886;49.170;14.572;2023-02-15T05:04:21;1.90;99.90
28715;DHT22;15886;49.170;14.572;2023-02-15T05:06:59;1.90;99.90
28715;DHT22;15886;49.170;14.572;2023-02-15T05:09:28;1.80;99.90
28715;DHT22;15886;49.170;14.572;2023-02-15T05:11:57;1.90;99.90
28715;DHT22;15886;49.170;14.572;2023-02-15T05:14:27;1.80;99.90
28715;DHT22;15886;49.170;14.572;2023-02-15T05:16:57;1.80;99.90
28715;DHT22;15886;49.170;14.572;2023-02-15T05:19:33;1.70;99.90
28715;DHT22;15886;49.170;14.572;2023-02-15T05:22:05;1.80;99.90
28715;DHT22;15886;49.170;14.572;2023-02-15T05:24:50;1.90;99.90
28715;DHT22;15886;49.170;14.572;2023-02-15T05:32:16;1.80;99.90
28715;DHT22;15886;49.170;14.572;2023-02-15T05:43:26;1.60;99.90
28715;DHT22;15886;49.170;14.572;2023-02-15T05:46:31;1.60;99.90
28715;DHT22;15886;49.170;14.572;2023-02-15T05:50:02;1.70;99.90
28715;DHT22;15886;49.170;14.572;2023-02-15T05:53:50;1.70;99.90
28715;DHT22;15886;49.170;14.572;2023-02-15T05:56:29;1.70;99.90
28715;DHT22;15886;49.170;14.572;2023-02-15T05:59:00;1.70;99.90
28715;DHT22;15886;49.170;14.572;2023-02-15T06:01:31;1.70;99.90
28715;DHT22;15886;49.170;14.572;2023-02-15T06:04:03;1.70;99.90
28715;DHT22;15886;49.170;14.572;2023-02-15T06:06:32;1.70;99.90
28715;DHT22;15886;49.170;14.572;2023-02-15T06:09:02;1.70;99.90
28715;DHT22;15886;49.170;14.572;2023-02-15T06:11:31;1.70;99.90
28715;DHT22;15886;49.170;14.572;2023-02-15T06:13:59;1.70;99.90
28715;DHT22;15886;49.170;14.572;2023-02-15T06:16:27;1.80;99.90
28715;DHT22;15886;49.170;14.572;2023-02-15T06:18:56;1.80;99.90
28715;DHT22;15886;49.170;14.572;2023-02-15T06:21:27;1.80;99.90
28715;DHT22;15886;49.170;14.572;2023-02-15T06:23:56;1.80;99.90
28715;DHT22;15886;49.170;14.572;2023-02-15T06:26:25;1.80;99.90
28715;DHT22;15886;49.170;14.572;2023-02-15T06:28:56;1.80;99.90
28715;DHT22;15886;49.170;14.572;2023-02-15T06:31:24;1.80;99.90
28715;DHT22;15886;49.170;14.572;2023-02-15T06:33:53;1.80;99.90
28715;DHT22;15886;49.170;14.572;2023-02-15T06:36:29;1.80;99.90
28715;DHT22;15886;49.170;14.572;2023-02-15T06:38:58;1.80;99.90
28715;DHT22;15886;49.170;14.572;2023-02-15T06:41:26;1.80;99.90
28715;DHT22;15886;49.170;14.572;2023-02-15T06:43:54;1.80;99.90
28715;DHT22;15886;49.170;14.572;2023-02-15T06:46:22;1.80;99.90
28715;DHT22;15886;49.170;14.572;2023-02-15T06:48:51;1.80;99.90
28715;DHT22;15886;49.170;14.572;2023-02-15T06:51:20;1.90;99.90
28715;DHT22;15886;49.170;14.572;2023-02-15T06:53:49;1.90;99.90
28715;DHT22;15886;49.170;14.572;2023-02-15T06:56:17;1.90;99.90
28715;DHT22;15886;49.170;14.572;2023-02-15T06:58:45;1.90;99.90
28715;DHT22;15886;49.170;14.572;2023-02-15T07:01:14;1.90;99.90
28715;DHT22;15886;49.170;14.572;2023-02-15T07:03:42;2.00;99.90
28715;DHT22;15886;49.170;14.572;2023-02-15T07:06:10;2.00;99.90
28715;DHT22;15886;49.170;14.572;2023-02-15T07:08:39;2.00;99.90
28715;DHT22;15886;49.170;14.572;2023-02-15T07:11:07;2.10;99.90
28715;DHT22;15886;49.170;14.572;2023-02-15T07:13:54;2.10;99.90
28715;DHT22;15886;49.170;14.572;2023-02-15T07:16:23;2.20;99.90
28715;DHT22;15886;49.170;14.572;2023-02-15T07:24:46;2.20;99.90
28715;DHT22;15886;49.170;14.572;2023-02-15T07:40:19;1.70;99.90
28715;DHT22;15886;49.170;14.572;2023-02-15T07:43:39;1.70;99.90
28715;DHT22;15886;49.170;14.572;2023-02-15T08:57:29;1.60;99.90
28715;DHT22;15886;49.170;14.572;2023-02-15T12:33:43;3.00;99.90
28715;DHT22;15886;49.170;14.572;2023-02-15T12:45:40;3.10;99.90
28715;DHT22;15886;49.170;14.572;2023-02-15T12:56:36;3.30;99.90
28715;DHT22;15886;49.170;14.572;2023-02-15T13:08:18;3.30;99.90
28715;DHT22;15886;49.170;14.572;2023-02-15T13:11:33;3.40;99.90
28715;DHT22;15886;49.170;14.572;2023-02-15T13:14:53;3.50;99.90
28715;DHT22;15886;49.170;14.572;2023-02-15T13:18:52;3.70;99.90
28715;DHT22;15886;49.170;14.572;2023-02-15T16:19:00;3.80;99.90
28715;DHT22;15886;49.170;14.572;2023-02-15T16:21:50;3.80;99.90
28715;DHT22;15886;49.170;14.572;2023-02-15T16:25:24;3.60;99.90
28715;DHT22;15886;49.170;14.572;2023-02-15T16:35:19;3.60;99.90
28715;DHT22;15886;49.170;14.572;2023-02-15T16:38:02;3.60;99.90
28715;DHT22;15886;49.170;14.572;2023-02-15T16:41:06;3.50;99.90
28715;DHT22;15886;49.170;14.572;2023-02-15T16:43:54;3.50;99.90
28715;DHT22;15886;49.170;14.572;2023-02-15T16:46:52;3.40;99.90
28715;DHT22;15886;49.170;14.572;2023-02-15T16:49:28;3.40;99.90
28715;DHT22;15886;49.170;14.572;2023-02-15T16:52:18;3.30;99.90
28715;DHT22;15886;49.170;14.572;2023-02-15T16:55:16;3.20;99.90
28715;DHT22;15886;49.170;14.572;2023-02-15T16:59:45;3.10;99.90
28715;DHT22;15886;49.170;14.572;2023-02-15T17:02:34;3.10;99.90
28715;DHT22;15886;49.170;14.572;2023-02-15T17:05:41;3.20;99.90
28715;DHT22;15886;49.170;14.572;2023-02-15T17:13:27;3.00;99.90
28715;DHT22;15886;49.170;14.572;2023-02-15T17:18:38;3.00;99.90
28715;DHT22;15886;49.170;14.572;2023-02-15T17:21:13;2.90;99.90
28715;DHT22;15886;49.170;14.572;2023-02-15T17:23:50;2.90;99.90
28715;DHT22;15886;49.170;14.572;2023-02-15T17:26:29;2.90;99.90
28715;DHT22;15886;49.170;14.572;2023-02-15T17:31:55;2.80;99.90
28715;DHT22;15886;49.170;14.572;2023-02-15T17:34:56;2.80;99.90
28715;DHT22;15886;49.170;14.572;2023-02-15T17:38:02;2.70;99.90
28715;DHT22;15886;49.170;14.572;2023-02-15T17:41:10;2.70;99.90
28715;DHT22;15886;49.170;14.572;2023-02-15T17:43:45;2.70;99.90
28715;DHT22;15886;49.170;14.572;2023-02-15T17:46:14;2.60;99.90
28715;DHT22;15886;49.170;14.572;2023-02-15T17:48:55;2.60;99.90
28715;DHT22;15886;49.170;14.572;2023-02-15T17:51:33;2.60;99.90
28715;DHT22;15886;49.170;14.572;2023-02-15T17:54:10;2.50;99.90
28715;DHT22;15886;49.170;14.572;2023-02-15T17:56:58;2.40;99.90
28715;DHT22;15886;49.170;14.572;2023-02-15T17:59:53;2.30;99.90
28715;DHT22;15886;49.170;14.572;2023-02-15T18:21:55;2.00;99.90
28715;DHT22;15886;49.170;14.572;2023-02-15T18:25:34;1.90;99.90
28715;DHT22;15886;49.170;14.572;2023-02-15T18:28:51;1.90;99.90
28715;DHT22;15886;49.170;14.572;2023-02-15T18:31:43;1.90;99.90
28715;DHT22;15886;49.170;14.572;2023-02-15T18:34:31;1.80;99.90
28715;DHT22;15886;49.170;14.572;2023-02-15T18:39:57;1.70;99.90
28715;DHT22;15886;49.170;14.572;2023-02-15T18:47:26;1.60;99.90
28715;DHT22;15886;49.170;14.572;2023-02-15T18:50:01;1.60;99.90
28715;DHT22;15886;49.170;14.572;2023-02-15T19:05:44;1.50;99.90
28715;DHT22;15886;49.170;14.572;2023-02-15T20:52:38;1.60;99.90
28715;DHT22;15886;49.170;14.572;2023-02-15T21:13:26;1.90;99.90
28715;DHT22;15886;49.170;14.572;2023-02-15T21:15:58;1.80;99.90
28715;DHT22;15886;49.170;14.572;2023-02-15T21:18:29;1.80;99.90
28715;DHT22;15886;49.170;14.572;2023-02-15T21:21:05;1.80;99.90
28715;DHT22;15886;49.170;14.572;2023-02-15T21:23:43;1.80;99.90
28715;DHT22;15886;49.170;14.572;2023-02-15T21:26:16;1.80;99.90
28715;DHT22;15886;49.170;14.572;2023-02-15T21:28:57;1.80;99.90
28715;DHT22;15886;49.170;14.572;2023-02-15T21:31:30;1.80;99.90
28715;DHT22;15886;49.170;14.572;2023-02-15T21:34:07;1.80;99.90
28715;DHT22;15886;49.170;14.572;2023-02-15T21:37:01;1.80;99.90
28715;DHT22;15886;49.170;14.572;2023-02-15T21:39:38;1.80;99.90
28715;DHT22;15886;49.170;14.572;2023-02-15T21:42:27;1.80;99.90
28715;DHT22;15886;49.170;14.572;2023-02-15T21:45:34;1.80;99.90
28715;DHT22;15886;49.170;14.572;2023-02-15T21:48:45;1.80;99.90
28715;DHT22;15886;49.170;14.572;2023-02-15T21:51:17;1.80;99.90
28715;DHT22;15886;49.170;14.572;2023-02-15T21:54:12;1.80;99.90
28715;DHT22;15886;49.170;14.572;2023-02-15T21:56:47;1.80;99.90
28715;DHT22;15886;49.170;14.572;2023-02-15T21:59:24;1.80;99.90
28715;DHT22;15886;49.170;14.572;2023-02-15T22:02:01;1.70;99.90
28715;DHT22;15886;49.170;14.572;2023-02-15T22:04:30;1.70;99.90
28715;DHT22;15886;49.170;14.572;2023-02-15T22:07:05;1.70;99.90
28715;DHT22;15886;49.170;14.572;2023-02-15T22:09:36;1.70;99.90
28715;DHT22;15886;49.170;14.572;2023-02-15T22:12:17;1.70;99.90
28715;DHT22;15886;49.170;14.572;2023-02-15T22:15:16;1.70;99.90
28715;DHT22;15886;49.170;14.572;2023-02-15T22:17:52;1.70;99.90
28715;DHT22;15886;49.170;14.572;2023-02-15T22:20:23;1.80;99.90
28715;DHT22;15886;49.170;14.572;2023-02-15T22:23:02;1.80;99.90
28715;DHT22;15886;49.170;14.572;2023-02-15T22:25:37;1.80;99.90
28715;DHT22;15886;49.170;14.572;2023-02-15T22:28:39;1.70;99.90
28715;DHT22;15886;49.170;14.572;2023-02-15T22:31:14;1.70;99.90
28715;DHT22;15886;49.170;14.572;2023-02-15T22:33:43;1.80;99.90
28715;DHT22;15886;49.170;14.572;2023-02-15T22:36:28;1.80;99.90
28715;DHT22;15886;49.170;14.572;2023-02-15T22:39:09;1.80;99.90
28715;DHT22;15886;49.170;14.572;2023-02-15T22:41:38;1.70;99.90
28715;DHT22;15886;49.170;14.572;2023-02-15T22:44:12;1.70;99.90
28715;DHT22;15886;49.170;14.572;2023-02-15T22:46:46;1.70;99.90
28715;DHT22;15886;49.170;14.572;2023-02-15T22:49:16;1.70;99.90
28715;DHT22;15886;49.170;14.572;2023-02-15T22:51:48;1.60;99.90
28715;DHT22;15886;49.170;14.572;2023-02-15T22:54:17;1.60;99.90
28715;DHT22;15886;49.170;14.572;2023-02-15T22:56:48;1.60;99.90
28715;DHT22;15886;49.170;14.572;2023-02-15T22:59:28;1.60;99.90
28715;DHT22;15886;49.170;14.572;2023-02-15T23:01:57;1.60;99.90
28715;DHT22;15886;49.170;14.572;2023-02-15T23:04:28;1.70;99.90
28715;DHT22;15886;49.170;14.572;2023-02-15T23:06:56;1.60;99.90
28715;DHT22;15886;49.170;14.572;2023-02-15T23:09:27;1.60;99.90
28715;DHT22;15886;49.170;14.572;2023-02-15T23:11:56;1.60;99.90
28715;DHT22;15886;49.170;14.572;2023-02-15T23:14:35;1.60;99.90
28715;DHT22;15886;49.170;14.572;2023-02-15T23:17:03;1.60;99.90
28715;DHT22;15886;49.170;14.572;2023-02-15T23:19:32;1.60;99.90
28715;DHT22;15886;49.170;14.572;2023-02-15T23:22:01;1.60;99.90
28715;DHT22;15886;49.170;14.572;2023-02-15T23:24:32;1.60;99.90
28715;DHT22;15886;49.170;14.572;2023-02-15T23:27:16;1.60;99.90
28715;DHT22;15886;49.170;14.572;2023-02-15T23:30:31;1.60;99.90
28715;DHT22;15886;49.170;14.572;2023-02-15T23:32:59;1.60;99.90
28715;DHT22;15886;49.170;14.572;2023-02-15T23:35:27;1.60;99.90
28715;DHT22;15886;49.170;14.572;2023-02-15T23:37:57;1.50;99.90
28715;DHT22;15886;49.170;14.572;2023-02-15T23:40:26;1.50;99.90
28715;DHT22;15886;49.170;14.572;2023-02-15T23:43:21;1.50;99.90
28715;DHT22;15886;49.170;14.572;2023-02-15T23:45:49;1.50;99.90
28715;DHT22;15886;49.170;14.572;2023-02-15T23:48:38;1.50;99.90
28715;DHT22;15886;49.170;14.572;2023-02-15T23:51:09;1.60;99.90
28715;DHT22;15886;49.170;14.572;2023-02-15T23:53:46;1.60;99.90
28715;DHT22;15886;49.170;14.572;2023-02-15T23:57:10;1.60;99.90
